This is the latest recevied weather packets stored in our database for station/object IW8PDD-3. If no packets are shown the sender has not sent any weather packets the latest 10 day(s).
| Time | Temp. | Humidity | Pressure | Rain* | Wind** | Luminosity | Snow |
|---|---|---|---|---|---|---|---|
| 1777759182 | 17.22° C | 52% | 1022.6 hPa | - | - | - | - |
| 1777757979 | 17.22° C | 51% | 1022.7 hPa | - | - | - | - |
| 1777756775 | 17.22° C | 51% | 1022.7 hPa | - | - | - | - |
| 1777755572 | 17.22° C | 51% | 1022.6 hPa | - | - | - | - |
| 1777753165 | 17.22° C | 49% | 1022.8 hPa | - | - | - | - |
| 1777751961 | 17.78° C | 49% | 1022.6 hPa | - | - | - | - |
| 1777750758 | 17.78° C | 48% | 1022.5 hPa | - | - | - | - |
| 1777748351 | 18.33° C | 46% | 1022.2 hPa | - | - | - | - |
| 1777743537 | 19.44° C | 43% | 1021.1 hPa | - | - | - | - |
| 1777742334 | 19.44° C | 43% | 1021 hPa | - | - | - | - |
| 1777741130 | 20° C | 42% | 1021 hPa | - | - | - | - |
| 1777739926 | 20.56° C | 42% | 1020.9 hPa | - | - | - | - |
| 1777738723 | 20.56° C | 42% | 1020.7 hPa | - | - | - | - |
| 1777737520 | 22.78° C | 40% | 1020.5 hPa | - | - | - | - |
| 1777736316 | 24.44° C | 38% | 1020.4 hPa | - | - | - | - |
| 1777735113 | 27.78° C | 37% | 1020.3 hPa | - | - | - | - |
| 1777733909 | 27.78° C | 37% | 1020.4 hPa | - | - | - | - |
| 1777732706 | 27.78° C | 37% | 1020.2 hPa | - | - | - | - |
| 1777731502 | 28.33° C | 38% | 1020.5 hPa | - | - | - | - |
| 1777730299 | 26.11° C | 41% | 1020.6 hPa | - | - | - | - |
| 1777729095 | 22.78° C | 42% | 1020.8 hPa | - | - | - | - |
| 1777727892 | 22.22° C | 43% | 1020.9 hPa | - | - | - | - |
| 1777726689 | 22.22° C | 43% | 1020.9 hPa | - | - | - | - |
| 1777725485 | 21.67° C | 44% | 1021.1 hPa | - | - | - | - |
| 1777724282 | 20.56° C | 44% | 1021.1 hPa | - | - | - | - |
* Rain since midnight (hover to see other rain measurements)
** Current wind speed in m/s (hover to see current wind gust speed)